Time;durP1;ratioP1;P1;durP2;ratioP2;P2;SDS_P1;SDS_P2;PMS_P1;PMS_P2;Temp;Humidity;BMP_temperature;BMP_pressure;BME280_temperature;BME280_humidity;BME280_pressure;Samples;Min_cycle;Max_cycle;Signal;HPM_P1;HPM_P2
2021/07/15 00:02:20;;;;;;;;;;;;;;;18.22;77.08;101247.50;4825214;29;20292;-63
2021/07/15 00:04:47;;;;;;;;;;;;;;;18.07;77.69;101251.00;4821219;29;19947;-64
2021/07/15 00:07:14;;;;;;;;;;;;;;;17.91;78.65;101243.34;4807122;29;19944;-63
2021/07/15 00:09:42;;;;;;;;;;;;;;;17.92;78.61;101241.38;4815973;29;19932;-63
2021/07/15 00:12:11;;;;;;;;;;;;;;;18.03;77.93;101238.94;4823001;29;19932;-64
2021/07/15 00:14:38;;;;;;;;;;;;;;;17.82;78.95;101245.44;4804626;29;19932;-63
2021/07/15 00:17:05;;;;;;;;;;;;;;;17.79;79.73;101239.75;4804262;29;19925;-63
2021/07/15 00:19:32;;;;;;;;;;;;;;;17.86;79.20;101238.03;4821751;29;19933;-64
2021/07/15 00:21:59;;;;;;;;;;;;;;;17.90;79.40;101238.94;4801327;29;19931;-63
2021/07/15 00:24:27;;;;;;;;;;;;;;;17.92;79.41;101235.81;4821161;29;20297;-63
2021/07/15 00:26:54;;;;;;;;;;;;;;;18.04;79.16;101246.13;4806560;29;19925;-64
2021/07/15 00:29:21;;;;;;;;;;;;;;;17.92;79.20;101241.38;4806571;29;19925;-63
2021/07/15 00:31:49;;;;;;;;;;;;;;;17.91;79.26;101248.09;4820793;29;19929;-63
2021/07/15 00:34:17;;;;;;;;;;;;;;;17.78;80.34;101247.28;4825514;29;19925;-63
2021/07/15 00:36:44;;;;;;;;;;;;;;;17.84;79.87;101247.88;4821834;29;19932;-63
2021/07/15 00:39:11;;;;;;;;;;;;;;;17.75;80.56;101256.38;4826340;29;19925;-64
2021/07/15 00:41:38;;;;;;;;;;;;;;;17.78;80.30;101257.66;4823731;29;19925;-63
2021/07/15 00:44:05;;;;;;;;;;;;;;;17.71;81.44;101241.50;4825812;29;19924;-63
2021/07/15 00:46:32;;;;;;;;;;;;;;;17.70;80.96;101256.59;4825813;29;19925;-63
2021/07/15 00:48:59;;;;;;;;;;;;;;;18.04;79.79;101268.44;4823572;29;19933;-62
2021/07/15 00:51:26;;;;;;;;;;;;;;;17.91;79.69;101265.66;4824515;29;19941;-63
2021/07/15 00:53:53;;;;;;;;;;;;;;;17.96;79.58;101268.19;4801398;29;19953;-62
2021/07/15 00:56:20;;;;;;;;;;;;;;;17.57;81.32;101268.88;4819260;29;19939;-63
2021/07/15 00:58:47;;;;;;;;;;;;;;;17.66;81.54;101263.22;4809215;29;19924;-64
2021/07/15 01:01:14;;;;;;;;;;;;;;;17.77;80.36;101279.13;4812342;29;19948;-63
2021/07/15 01:03:41;;;;;;;;;;;;;;;17.33;83.09;101270.81;4812713;29;19936;-64
2021/07/15 01:06:08;;;;;;;;;;;;;;;17.31;83.53;101264.78;4827383;29;19932;-63
2021/07/15 01:08:35;;;;;;;;;;;;;;;17.46;83.04;101258.53;4815644;29;19925;-63
2021/07/15 01:11:06;;;;;;;;;;;;;;;17.34;83.25;101253.75;4826914;29;19932;-63
2021/07/15 01:13:46;;;;;;;;;;;;;;;17.32;83.43;101250.50;4787250;29;19925;-63
2021/07/15 01:16:21;;;;;;;;;;;;;;;17.41;83.80;101259.56;4826170;29;19925;-64
2021/07/15 01:18:54;;;;;;;;;;;;;;;17.44;82.76;101258.88;4826559;29;19952;-64
2021/07/15 01:21:33;;;;;;;;;;;;;;;17.27;83.98;101261.84;4819618;29;19943;-64
2021/07/15 01:24:17;;;;;;;;;;;;;;;17.14;84.85;101259.41;4818749;29;19935;-63
2021/07/15 01:26:53;;;;;;;;;;;;;;;17.08;85.20;101264.38;4808682;29;19924;-63
2021/07/15 01:29:23;;;;;;;;;;;;;;;17.06;85.73;101263.91;4810189;29;19925;-63
2021/07/15 01:31:51;;;;;;;;;;;;;;;17.15;85.58;101263.81;4824828;29;20431;-62
2021/07/15 01:34:19;;;;;;;;;;;;;;;17.11;85.41;101260.06;4793827;29;19932;-63
2021/07/15 01:36:47;;;;;;;;;;;;;;;17.28;84.69;101263.47;4809630;29;20330;-63
2021/07/15 01:39:14;;;;;;;;;;;;;;;17.21;84.76;101252.09;4798121;29;19925;-63
2021/07/15 01:41:45;;;;;;;;;;;;;;;17.14;85.31;101262.19;4806554;29;19936;-64
2021/07/15 01:44:16;;;;;;;;;;;;;;;17.13;85.63;101269.72;4823730;29;19929;-63
2021/07/15 01:46:43;;;;;;;;;;;;;;;17.02;86.27;101262.13;4807332;29;19925;-63
2021/07/15 01:49:10;;;;;;;;;;;;;;;17.15;85.94;101266.59;4824749;29;19931;-64
2021/07/15 01:51:37;;;;;;;;;;;;;;;17.20;85.32;101266.34;4818747;29;20429;-63
2021/07/15 01:54:05;;;;;;;;;;;;;;;17.08;85.72;101261.59;4802467;29;20565;-63
2021/07/15 01:56:32;;;;;;;;;;;;;;;17.23;85.30;101260.91;4825354;29;19932;-62
2021/07/15 01:58:59;;;;;;;;;;;;;;;17.11;85.95;101260.88;4807300;29;19925;-62
2021/07/15 02:01:27;;;;;;;;;;;;;;;17.04;85.94;101265.38;4809171;29;19933;-63
2021/07/15 02:03:55;;;;;;;;;;;;;;;17.02;86.47;101256.56;4787585;29;20381;-62
2021/07/15 02:06:23;;;;;;;;;;;;;;;17.13;86.14;101253.00;4806418;29;20408;-62
2021/07/15 02:08:51;;;;;;;;;;;;;;;17.17;85.95;101255.91;4824750;29;19931;-62
2021/07/15 02:11:18;;;;;;;;;;;;;;;17.22;85.45;101252.91;4819997;29;19932;-62
2021/07/15 02:13:45;;;;;;;;;;;;;;;17.12;85.57;101256.94;4824890;29;20398;-62
2021/07/15 02:16:12;;;;;;;;;;;;;;;17.02;86.56;101267.69;4820490;29;19936;-62
2021/07/15 02:18:40;;;;;;;;;;;;;;;16.94;87.15;101266.63;4793703;29;19933;-63
2021/07/15 02:21:07;;;;;;;;;;;;;;;16.96;87.24;101257.94;4808808;29;19925;-62
2021/07/15 02:23:34;;;;;;;;;;;;;;;17.29;86.04;101251.19;4825344;29;19925;-62
2021/07/15 02:26:01;;;;;;;;;;;;;;;17.06;86.60;101252.75;4825591;29;19936;-64
2021/07/15 02:28:29;;;;;;;;;;;;;;;17.01;87.20;101243.81;4805331;29;19924;-63
2021/07/15 02:30:58;;;;;;;;;;;;;;;16.92;87.43;101251.44;4825161;29;19931;-63
2021/07/15 02:33:26;;;;;;;;;;;;;;;17.08;86.71;101261.59;4808129;29;19925;-62
2021/07/15 02:35:54;;;;;;;;;;;;;;;17.15;86.72;101258.22;4822695;29;19941;-63
2021/07/15 02:38:22;;;;;;;;;;;;;;;17.07;87.00;101248.00;4810039;29;19925;-63
2021/07/15 02:40:50;;;;;;;;;;;;;;;17.05;86.72;101253.09;4825054;29;20296;-63
2021/07/15 02:43:17;;;;;;;;;;;;;;;16.97;87.41;101246.47;4824936;29;19925;-63
2021/07/15 02:45:44;;;;;;;;;;;;;;;16.96;87.63;101246.81;4820760;29;19932;-64
2021/07/15 02:48:12;;;;;;;;;;;;;;;16.92;87.65;101246.69;4826410;29;19944;-64
2021/07/15 02:50:39;;;;;;;;;;;;;;;16.99;87.42;101243.34;4808607;29;19925;-64
2021/07/15 02:53:06;;;;;;;;;;;;;;;17.19;85.85;101248.03;4826261;29;19928;-63
2021/07/15 02:55:33;;;;;;;;;;;;;;;16.99;87.49;101241.38;4806110;29;19925;-63
2021/07/15 02:58:08;;;;;;;;;;;;;;;17.18;86.34;101243.63;4803166;29;19925;-63
2021/07/15 03:00:36;;;;;;;;;;;;;;;17.28;86.10;101241.19;4822538;29;19925;-63
2021/07/15 03:03:07;;;;;;;;;;;;;;;17.07;86.80;101237.66;4807719;29;19931;-63
2021/07/15 03:05:34;;;;;;;;;;;;;;;17.11;87.18;101233.06;4807913;29;19924;-63
2021/07/15 03:08:06;;;;;;;;;;;;;;;16.93;87.64;101226.03;4793654;29;20294;-63
2021/07/15 03:10:34;;;;;;;;;;;;;;;17.06;87.50;101236.06;4822979;29;19940;-64
2021/07/15 03:13:10;;;;;;;;;;;;;;;16.94;88.29;101224.91;4809123;29;19940;-62
2021/07/15 03:15:38;;;;;;;;;;;;;;;17.07;87.41;101228.53;4825455;29;20499;-64
2021/07/15 03:18:05;;;;;;;;;;;;;;;16.80;88.54;101227.16;4807721;29;19925;-62
2021/07/15 03:20:42;;;;;;;;;;;;;;;16.83;89.11;101229.25;4807162;29;20630;-63
2021/07/15 03:23:13;;;;;;;;;;;;;;;16.74;89.60;101228.53;4819651;29;19925;-62
2021/07/15 03:25:43;;;;;;;;;;;;;;;16.78;89.58;101243.38;4801739;29;19925;-62
2021/07/15 03:28:10;;;;;;;;;;;;;;;16.73;89.75;101244.44;4819735;29;20450;-62
2021/07/15 03:30:37;;;;;;;;;;;;;;;16.66;90.58;101243.34;4807475;29;19932;-63
2021/07/15 03:33:04;;;;;;;;;;;;;;;16.60;90.86;101241.91;4808144;29;19932;-62
2021/07/15 03:35:31;;;;;;;;;;;;;;;16.77;91.60;101244.56;4819753;29;19929;-63
2021/07/15 03:37:58;;;;;;;;;;;;;;;16.91;89.25;101242.28;4823608;29;19924;-63
2021/07/15 03:40:26;;;;;;;;;;;;;;;16.82;89.60;101249.91;4799132;29;19925;-63
2021/07/15 03:42:53;;;;;;;;;;;;;;;16.85;90.06;101249.22;4807977;29;20296;-63
2021/07/15 03:45:21;;;;;;;;;;;;;;;16.87;90.39;101244.13;4821290;29;19924;-63
2021/07/15 03:47:49;;;;;;;;;;;;;;;16.86;89.28;101243.31;4808556;29;19932;-63
2021/07/15 03:50:18;;;;;;;;;;;;;;;17.04;88.58;101245.91;4805326;29;19924;-62
2021/07/15 03:52:46;;;;;;;;;;;;;;;16.95;89.35;101242.38;4802728;29;20304;-63
2021/07/15 03:55:13;;;;;;;;;;;;;;;16.99;88.93;101244.16;4792166;29;20305;-63
2021/07/15 03:57:40;;;;;;;;;;;;;;;16.94;88.89;101240.78;4805449;29;20400;-64
2021/07/15 04:00:07;;;;;;;;;;;;;;;16.88;89.54;101245.72;4801826;29;19925;-63
2021/07/15 04:02:38;;;;;;;;;;;;;;;16.76;90.30;101248.47;4822258;29;20310;-63
2021/07/15 04:05:05;;;;;;;;;;;;;;;16.86;89.86;101246.09;4805440;29;19925;-63
2021/07/15 04:07:32;;;;;;;;;;;;;;;16.88;89.97;101233.81;4803264;29;20435;-63
2021/07/15 04:09:59;;;;;;;;;;;;;;;17.17;88.95;101237.25;4805423;29;19933;-63
2021/07/15 04:12:26;;;;;;;;;;;;;;;17.32;86.94;101247.72;4826449;29;20443;-63
2021/07/15 04:15:04;;;;;;;;;;;;;;;17.31;86.88;101245.28;4793691;29;19932;-63
2021/07/15 04:17:31;;;;;;;;;;;;;;;17.46;86.22;101248.22;4811442;29;19971;-62
2021/07/15 04:20:06;;;;;;;;;;;;;;;17.41;86.32;101240.06;4830876;29;19932;-62
2021/07/15 04:22:34;;;;;;;;;;;;;;;17.32;86.53;101244.94;4808094;29;19925;-68
2021/07/15 04:25:01;;;;;;;;;;;;;;;17.13;88.16;101254.97;4791091;29;19933;-64
2021/07/15 04:27:28;;;;;;;;;;;;;;;17.02;88.33;101248.22;4827491;29;19924;-63
2021/07/15 04:29:58;;;;;;;;;;;;;;;17.13;88.15;101247.44;4819217;29;19932;-62
2021/07/15 04:32:26;;;;;;;;;;;;;;;17.07;87.92;101259.94;4824432;29;19924;-63
2021/07/15 04:34:54;;;;;;;;;;;;;;;17.04;88.62;101255.06;4808241;29;19925;-63
2021/07/15 04:37:21;;;;;;;;;;;;;;;17.06;87.74;101263.91;4827406;29;19928;-64
2021/07/15 04:39:48;;;;;;;;;;;;;;;17.14;87.74;101262.19;4826006;29;19925;-62
2021/07/15 04:42:15;;;;;;;;;;;;;;;17.28;87.19;101260.69;4824991;29;20396;-63
2021/07/15 04:44:44;;;;;;;;;;;;;;;17.44;86.25;101261.66;4811117;29;19925;-63
2021/07/15 04:47:12;;;;;;;;;;;;;;;17.34;85.82;101264.91;4803524;29;20415;-63
2021/07/15 04:49:40;;;;;;;;;;;;;;;17.25;86.76;101266.13;4810120;29;19932;-62
2021/07/15 04:52:07;;;;;;;;;;;;;;;17.19;86.93;101265.53;4824566;29;20557;-62
2021/07/15 04:54:36;;;;;;;;;;;;;;;17.25;86.27;101278.09;4823584;29;20008;-62
2021/07/15 04:57:03;;;;;;;;;;;;;;;17.09;87.25;101270.72;4791009;29;19925;-62
2021/07/15 04:59:30;;;;;;;;;;;;;;;17.09;87.48;101273.50;4824403;29;19924;-62
2021/07/15 05:01:57;;;;;;;;;;;;;;;17.12;86.95;101275.63;4824499;29;19924;-62
2021/07/15 05:04:26;;;;;;;;;;;;;;;17.12;87.06;101270.84;4825177;29;19932;-62
2021/07/15 05:06:55;;;;;;;;;;;;;;;16.99;88.12;101271.16;4826600;29;19932;-62
2021/07/15 05:09:22;;;;;;;;;;;;;;;17.11;87.75;101276.78;4810037;29;20289;-62
2021/07/15 05:11:49;;;;;;;;;;;;;;;17.07;87.44;101271.06;4819231;29;19932;-62
2021/07/15 05:14:17;;;;;;;;;;;;;;;17.22;86.92;101277.97;4807379;29;19925;-63
2021/07/15 05:16:44;;;;;;;;;;;;;;;17.43;85.77;101273.97;4823532;29;20430;-63
2021/07/15 05:19:12;;;;;;;;;;;;;;;17.30;85.69;101265.91;4825329;29;19928;-62
2021/07/15 05:21:39;;;;;;;;;;;;;;;17.33;84.96;101273.59;4820301;29;19925;-62
2021/07/15 05:24:06;;;;;;;;;;;;;;;17.26;85.26;101276.91;4809611;29;19925;-63
2021/07/15 05:26:33;;;;;;;;;;;;;;;17.28;85.10;101271.00;4825283;29;19925;-63
2021/07/15 05:29:00;;;;;;;;;;;;;;;17.38;84.78;101276.16;4826552;29;20309;-62
2021/07/15 05:31:27;;;;;;;;;;;;;;;17.46;84.36;101273.28;4826961;29;19932;-63
2021/07/15 05:33:54;;;;;;;;;;;;;;;17.54;83.39;101282.72;4814076;29;19944;-62
2021/07/15 05:36:21;;;;;;;;;;;;;;;17.48;83.03;101284.09;4822892;29;19925;-63
2021/07/15 05:38:48;;;;;;;;;;;;;;;17.39;83.08;101284.16;4798338;29;19925;-63
2021/07/15 05:41:15;;;;;;;;;;;;;;;17.39;83.51;101284.16;4811740;29;19932;-63
2021/07/15 05:43:42;;;;;;;;;;;;;;;17.42;83.51;101279.84;4794572;29;20464;-63
2021/07/15 05:46:09;;;;;;;;;;;;;;;17.48;83.06;101292.44;4811405;29;19925;-63
2021/07/15 05:48:36;;;;;;;;;;;;;;;17.41;83.86;101290.19;4793179;29;19925;-63
2021/07/15 05:51:03;;;;;;;;;;;;;;;17.46;83.84;101294.72;4802721;29;19944;-62
2021/07/15 05:53:30;;;;;;;;;;;;;;;17.52;83.26;101294.19;4818315;29;19925;-64
2021/07/15 05:55:57;;;;;;;;;;;;;;;17.45;84.63;101288.34;4818037;29;19924;-63
2021/07/15 05:58:24;;;;;;;;;;;;;;;17.39;84.54;101305.63;4812664;29;19925;-63
2021/07/15 06:00:51;;;;;;;;;;;;;;;17.37;84.96;101311.53;4813516;29;19925;-61
2021/07/15 06:03:18;;;;;;;;;;;;;;;17.34;85.67;101286.34;4810680;29;20262;-63
2021/07/15 06:05:49;;;;;;;;;;;;;;;17.40;85.40;101296.91;4810339;29;19932;-64
2021/07/15 06:08:16;;;;;;;;;;;;;;;17.37;85.73;101292.03;4813434;29;19955;-63
2021/07/15 06:10:43;;;;;;;;;;;;;;;17.33;86.37;101296.66;4814710;29;19960;-64
2021/07/15 06:13:10;;;;;;;;;;;;;;;17.60;84.80;101293.28;4815328;29;19948;-63
2021/07/15 06:15:37;;;;;;;;;;;;;;;17.57;85.12;101296.75;4800581;29;19932;-63
2021/07/15 06:18:04;;;;;;;;;;;;;;;17.52;85.22;101288.59;4822476;29;19925;-63
2021/07/15 06:20:31;;;;;;;;;;;;;;;17.73;84.38;101303.25;4793641;29;19925;-62
2021/07/15 06:22:58;;;;;;;;;;;;;;;17.73;84.49;101296.91;4823609;29;19924;-62
2021/07/15 06:25:25;;;;;;;;;;;;;;;17.69;84.41;101304.31;4818193;29;19939;-62
2021/07/15 06:27:53;;;;;;;;;;;;;;;17.64;85.31;101296.19;4819843;29;19925;-63
2021/07/15 06:30:20;;;;;;;;;;;;;;;17.55;85.71;101290.72;4795322;29;19931;-63
2021/07/15 06:32:47;;;;;;;;;;;;;;;17.70;84.61;101292.81;4819242;29;20413;-63
2021/07/15 06:35:15;;;;;;;;;;;;;;;17.67;84.95;101301.88;4821402;29;19924;-62
2021/07/15 06:37:43;;;;;;;;;;;;;;;17.66;84.95;101307.81;4802366;29;19939;-63
2021/07/15 06:40:10;;;;;;;;;;;;;;;17.63;85.05;101302.91;4823514;29;20320;-62
2021/07/15 06:42:38;;;;;;;;;;;;;;;17.78;84.52;101308.59;4824831;29;19931;-63
2021/07/15 06:45:05;;;;;;;;;;;;;;;17.79;84.00;101312.22;4826278;29;19925;-62
2021/07/15 06:47:33;;;;;;;;;;;;;;;17.78;83.85;101318.97;4824709;29;19929;-62
2021/07/15 06:50:00;;;;;;;;;;;;;;;18.02;83.21;101324.53;4823143;29;19924;-61
2021/07/15 06:52:29;;;;;;;;;;;;;;;17.89;82.86;101317.31;4824822;29;19925;-63
2021/07/15 06:54:57;;;;;;;;;;;;;;;17.75;82.80;101320.44;4820951;29;19931;-63
2021/07/15 06:57:24;;;;;;;;;;;;;;;17.72;83.85;101317.53;4809412;29;19924;-63
2021/07/15 06:59:51;;;;;;;;;;;;;;;17.68;83.77;101322.19;4825665;29;19931;-63
2021/07/15 07:02:18;;;;;;;;;;;;;;;17.71;83.79;101322.28;4822539;29;19933;-63
2021/07/15 07:04:45;;;;;;;;;;;;;;;17.86;82.70;101320.81;4809968;29;19925;-62
2021/07/15 07:07:12;;;;;;;;;;;;;;;17.73;82.84;101316.41;4825626;29;19925;-63
2021/07/15 07:09:39;;;;;;;;;;;;;;;17.82;83.50;101309.53;4826044;29;19933;-63
2021/07/15 07:12:07;;;;;;;;;;;;;;;17.93;82.70;101302.34;4808221;29;19928;-63
2021/07/15 07:14:34;;;;;;;;;;;;;;;18.23;82.35;101310.47;4824810;29;19924;-63
2021/07/15 07:17:01;;;;;;;;;;;;;;;18.20;80.48;101309.16;4826393;29;20374;-64
2021/07/15 07:19:28;;;;;;;;;;;;;;;18.08;80.01;101305.59;4826079;29;19941;-62
2021/07/15 07:21:55;;;;;;;;;;;;;;;18.23;79.78;101313.25;4825896;29;20312;-63
2021/07/15 07:24:23;;;;;;;;;;;;;;;18.20;79.94;101309.16;4833713;29;19924;-63
2021/07/15 07:26:50;;;;;;;;;;;;;;;18.43;80.13;101304.75;4809381;29;19924;-64
2021/07/15 07:29:17;;;;;;;;;;;;;;;19.40;87.43;101301.63;4824766;29;20428;-42
2021/07/15 07:31:44;;;;;;;;;;;;;;;20.99;76.47;101302.25;4824744;29;19951;-43
2021/07/15 07:34:16;;;;;;;;;;;;;;;22.01;70.03;101292.13;4825483;29;20285;-42
2021/07/15 07:36:43;;;;;;;;;;;;;;;;;;4808059;29;19936;-45
2021/07/15 07:39:10;;;;;;;;;;;;;;;21.43;68.29;101296.31;4820414;29;19933;-44
2021/07/15 07:41:37;;;;;;;;;;;;;;;21.74;65.98;101301.69;4821240;29;19924;-44
2021/07/15 07:44:04;;;;;;;;;;;;;;;21.55;67.11;101296.91;4823244;29;19931;-47
2021/07/15 07:46:31;;;;;;;;;;;;;;;21.62;64.69;101287.84;4819510;29;19924;-48
2021/07/15 07:48:59;;;;;;;;;;;;;;;21.83;64.59;101293.81;4822802;29;19959;-48
2021/07/15 07:51:26;;;;;;;;;;;;;;;22.12;63.80;101293.13;4804859;29;19929;-49
2021/07/15 07:53:53;;;;;;;;;;;;;;;22.00;62.55;101291.31;4822346;29;19925;-45
2021/07/15 07:56:21;;;;;;;;;;;;;;;21.70;65.02;101296.00;4824119;29;19928;-48
2021/07/15 07:58:48;;;;;;;;;;;;;;;21.89;63.27;101298.75;4807235;29;19924;-45
2021/07/15 08:01:15;;;;;;;;;;;;;;;22.01;62.22;101294.94;4823422;29;20300;-45
2021/07/15 08:03:42;;;;;;;;;;;;;;;21.83;63.04;101310.66;4807454;29;19932;-45
2021/07/15 08:06:09;;;;;;;;;;;;;;;21.54;63.88;101309.34;4822443;29;19931;-46
2021/07/15 08:08:39;;;;;;;;;;;;;;;21.46;63.71;101296.38;4823444;29;20395;-46
2021/07/15 08:11:07;;;;;;;;;;;;;;;21.64;62.56;101297.50;4823600;29;19929;-48
2021/07/15 08:13:34;;;;;;;;;;;;;;;21.32;63.29;101304.53;4823785;29;20416;-46
2021/07/15 08:16:01;;;;;;;;;;;;;;;21.48;63.32;101305.19;4822183;29;19933;-48
2021/07/15 08:18:29;;;;;;;;;;;;;;;21.05;64.10;101297.16;4806559;29;19925;-46
2021/07/15 08:20:56;;;;;;;;;;;;;;;21.53;63.77;101293.69;4824089;29;20408;-46
2021/07/15 08:23:23;;;;;;;;;;;;;;;21.41;63.68;101307.88;4824339;29;19925;-44
2021/07/15 08:25:50;;;;;;;;;;;;;;;20.99;64.60;101301.47;4824035;29;19947;-64
2021/07/15 08:28:17;;;;;;;;;;;;;;;20.17;67.80;101300.00;4821069;29;19931;-62
2021/07/15 08:30:44;;;;;;;;;;;;;;;19.97;69.38;101291.53;4823211;29;19943;-63
2021/07/15 08:33:11;;;;;;;;;;;;;;;20.04;69.32;101294.50;4822981;29;19936;-62
2021/07/15 08:35:38;;;;;;;;;;;;;;;19.74;70.10;101295.31;4822695;29;19931;-62
2021/07/15 08:38:05;;;;;;;;;;;;;;;19.81;70.07;101282.34;4821907;29;19924;-62
2021/07/15 08:40:32;;;;;;;;;;;;;;;19.75;70.47;101292.16;4823472;29;19932;-62
2021/07/15 08:42:59;;;;;;;;;;;;;;;19.68;70.92;101280.00;4824095;29;19925;-63
2021/07/15 08:45:26;;;;;;;;;;;;;;;19.78;70.94;101290.63;4809004;29;19936;-61
2021/07/15 08:47:54;;;;;;;;;;;;;;;19.93;69.94;101278.63;4823786;29;19925;-62
2021/07/15 08:50:21;;;;;;;;;;;;;;;19.82;70.89;101280.34;4823367;29;19932;-62
2021/07/15 08:52:48;;;;;;;;;;;;;;;19.92;69.98;101286.22;4824272;29;19932;-63
2021/07/15 08:55:21;;;;;;;;;;;;;;;20.12;69.82;101285.09;4824831;29;19940;-63
2021/07/15 08:57:48;;;;;;;;;;;;;;;20.23;69.82;101285.38;4809339;29;20301;-62
2021/07/15 09:00:16;;;;;;;;;;;;;;;20.19;68.93;101276.06;4825995;29;19936;-62
2021/07/15 09:02:43;;;;;;;;;;;;;;;20.17;68.80;101284.03;4824602;29;19934;-62
2021/07/15 09:05:13;;;;;;;;;;;;;;;20.41;68.37;101294.16;4824692;29;20388;-63
2021/07/15 09:07:41;;;;;;;;;;;;;;;20.43;68.04;101270.25;4826925;29;20409;-64
2021/07/15 09:10:09;;;;;;;;;;;;;;;20.44;67.92;101271.84;4809979;29;19932;-63
2021/07/15 09:12:36;;;;;;;;;;;;;;;20.65;66.97;101277.91;4809512;29;19929;-63
2021/07/15 09:15:08;;;;;;;;;;;;;;;20.96;66.17;101277.75;4826327;29;19999;-63
2021/07/15 09:17:35;;;;;;;;;;;;;;;20.83;64.28;101283.91;4808384;29;20441;-62
2021/07/15 09:20:05;;;;;;;;;;;;;;;20.77;64.90;101286.16;4810553;29;20281;-63
2021/07/15 09:22:32;;;;;;;;;;;;;;;20.83;65.52;101287.50;4826061;29;19936;-63
2021/07/15 09:25:00;;;;;;;;;;;;;;;20.87;65.76;101285.56;4825411;29;19936;-63
2021/07/15 09:27:28;;;;;;;;;;;;;;;20.98;65.07;101297.00;4800307;29;19925;-61
2021/07/15 09:30:14;;;;;;;;;;;;;;;21.13;64.79;101284.94;4793627;29;20321;-61
2021/07/15 09:32:58;;;;;;;;;;;;;;;21.12;64.18;101300.94;4823252;29;19925;-62
2021/07/15 09:35:32;;;;;;;;;;;;;;;20.86;64.57;101286.78;4822292;29;19925;-61
2021/07/15 09:38:09;;;;;;;;;;;;;;;20.85;64.40;101290.72;4807320;29;20546;-61
2021/07/15 09:40:40;;;;;;;;;;;;;;;20.98;63.19;101283.00;4808321;29;19933;-61
2021/07/15 09:43:13;;;;;;;;;;;;;;;21.19;61.25;101287.06;4822348;29;19945;-62
2021/07/15 09:45:40;;;;;;;;;;;;;;;21.13;60.52;101296.94;4824015;29;19932;-62
2021/07/15 09:48:16;;;;;;;;;;;;;;;21.30;60.72;101298.47;4823743;29;19932;-62
2021/07/15 09:50:47;;;;;;;;;;;;;;;21.61;60.09;101292.63;4823437;29;19928;-64
2021/07/15 09:53:18;;;;;;;;;;;;;;;21.68;59.48;101287.16;4807734;29;19932;-61
2021/07/15 09:55:46;;;;;;;;;;;;;;;21.71;59.05;101277.97;4824113;29;19932;-61
2021/07/15 09:58:13;;;;;;;;;;;;;;;21.58;59.56;101296.19;4822328;29;19944;-61
2021/07/15 10:00:41;;;;;;;;;;;;;;;21.49;59.50;101301.22;4823825;29;19924;-62
2021/07/15 10:03:10;;;;;;;;;;;;;;;21.48;58.81;101313.63;4823074;29;19928;-61
2021/07/15 10:05:38;;;;;;;;;;;;;;;21.52;59.09;101285.66;4822629;29;19925;-63
2021/07/15 10:08:06;;;;;;;;;;;;;;;21.70;58.45;101290.41;4822981;29;20337;-62
2021/07/15 10:10:33;;;;;;;;;;;;;;;21.87;58.15;101291.91;4823720;29;19931;-62
2021/07/15 10:13:20;;;;;;;;;;;;;;;22.00;58.09;101294.13;4822052;29;19925;-62
2021/07/15 10:16:07;;;;;;;;;;;;;;;21.74;58.88;101293.25;4822593;29;19936;-62
2021/07/15 10:18:53;;;;;;;;;;;;;;;21.90;58.49;101289.16;4823837;29;20440;-62
2021/07/15 10:21:24;;;;;;;;;;;;;;;21.84;58.61;101273.03;4823135;29;19932;-63
2021/07/15 10:23:51;;;;;;;;;;;;;;;21.74;59.16;101285.63;4823281;29;20471;-62
2021/07/15 10:26:27;;;;;;;;;;;;;;;21.73;58.70;101289.63;4814286;29;19925;-63
2021/07/15 10:28:54;;;;;;;;;;;;;;;21.82;58.39;101290.22;4807535;29;19932;-61
2021/07/15 10:31:22;;;;;;;;;;;;;;;21.93;58.20;101288.38;4824306;29;19932;-61
2021/07/15 10:33:50;;;;;;;;;;;;;;;21.96;58.09;101303.69;4824583;29;19932;-61
2021/07/15 10:36:17;;;;;;;;;;;;;;;21.87;57.89;101295.53;4808208;29;19925;-62
2021/07/15 10:38:45;;;;;;;;;;;;;;;21.73;57.57;101330.88;4809971;29;20325;-62
2021/07/15 10:41:13;;;;;;;;;;;;;;;21.78;58.41;101297.78;4826588;29;19940;-61
2021/07/15 10:43:40;;;;;;;;;;;;;;;21.80;58.17;101291.78;4825318;29;19932;-62
2021/07/15 10:46:08;;;;;;;;;;;;;;;21.89;58.34;101300.75;4824867;29;19925;-61
2021/07/15 10:48:35;;;;;;;;;;;;;;;22.15;58.21;101293.19;4822645;29;19932;-62
2021/07/15 10:51:04;;;;;;;;;;;;;;;22.29;57.28;101318.66;4823851;29;19932;-62
2021/07/15 10:53:33;;;;;;;;;;;;;;;22.21;56.68;101302.88;4824857;29;19929;-62
2021/07/15 10:56:03;;;;;;;;;;;;;;;22.09;57.08;101308.69;4807536;29;19931;-62
2021/07/15 10:58:53;;;;;;;;;;;;;;;22.13;56.52;101303.16;4821390;29;20047;-61
2021/07/15 11:01:35;;;;;;;;;;;;;;;22.29;56.21;101307.44;4802217;29;19932;-62
2021/07/15 11:04:04;;;;;;;;;;;;;;;22.30;56.58;101296.97;4806230;29;20322;-61
2021/07/15 11:06:37;;;;;;;;;;;;;;;22.44;55.21;101328.06;4824078;29;19928;-61
2021/07/15 11:09:05;;;;;;;;;;;;;;;22.39;56.39;101289.09;4823776;29;19924;-63
2021/07/15 11:11:36;;;;;;;;;;;;;;;22.55;55.61;101301.00;4823539;29;19931;-62
2021/07/15 11:14:03;;;;;;;;;;;;;;;22.61;56.03;101299.50;4822563;29;19932;-63
2021/07/15 11:16:50;;;;;;;;;;;;;;;22.88;55.73;101300.22;4807419;29;19931;-62
2021/07/15 11:19:37;;;;;;;;;;;;;;;22.82;55.20;101290.53;4806239;29;20024;-64
2021/07/15 11:22:04;;;;;;;;;;;;;;;22.68;55.18;101295.97;4822559;29;19933;-64
2021/07/15 11:24:31;;;;;;;;;;;;;;;22.69;55.99;101297.56;4807235;29;19929;-62
2021/07/15 11:26:58;;;;;;;;;;;;;;;22.98;55.27;101291.94;4822900;29;19932;-64
2021/07/15 11:29:47;;;;;;;;;;;;;;;23.05;54.76;101291.19;4824053;29;19938;-62
2021/07/15 11:32:26;;;;;;;;;;;;;;;23.08;55.20;101287.63;4823821;29;20555;-62
2021/07/15 11:34:55;;;;;;;;;;;;;;;23.02;55.26;101300.41;4823922;29;20357;-63
2021/07/15 11:37:25;;;;;;;;;;;;;;;22.92;55.59;101312.31;4792946;29;19925;-63
2021/07/15 11:39:52;;;;;;;;;;;;;;;22.82;56.13;101307.38;4823762;29;19924;-63
2021/07/15 11:42:19;;;;;;;;;;;;;;;22.80;55.92;101298.53;4823852;29;20015;-61
2021/07/15 11:45:06;;;;;;;;;;;;;;;23.03;55.70;101294.38;4822854;29;19929;-62
2021/07/15 11:47:42;;;;;;;;;;;;;;;22.96;55.16;101297.13;4823643;29;19925;-62
2021/07/15 11:50:29;;;;;;;;;;;;;;;22.90;53.91;101303.47;4823739;29;19925;-61
2021/07/15 11:53:15;;;;;;;;;;;;;;;22.94;54.85;101293.91;4822150;29;19933;-62
2021/07/15 11:55:46;;;;;;;;;;;;;;;23.26;53.67;101305.47;4807056;29;19925;-61
2021/07/15 11:58:32;;;;;;;;;;;;;;;23.01;54.92;101295.97;4806767;29;19929;-62
2021/07/15 12:01:20;;;;;;;;;;;;;;;23.01;54.77;101288.34;4807578;29;19932;-62
2021/07/15 12:04:06;;;;;;;;;;;;;;;23.25;53.72;101317.94;4805599;29;19933;-60
2021/07/15 12:06:43;;;;;;;;;;;;;;;23.34;53.43;101296.00;4822525;29;20404;-61
2021/07/15 12:09:11;;;;;;;;;;;;;;;23.14;53.21;101323.44;4807152;29;19936;-60
2021/07/15 12:11:39;;;;;;;;;;;;;;;22.88;54.35;101297.41;4806840;29;19924;-61
2021/07/15 12:14:06;;;;;;;;;;;;;;;23.07;53.37;101292.44;4822689;29;19928;-61
2021/07/15 12:16:34;;;;;;;;;;;;;;;23.36;53.41;101296.41;4806236;29;19925;-62
2021/07/15 12:19:03;;;;;;;;;;;;;;;23.50;52.16;101304.19;4813635;29;20420;-61
2021/07/15 12:21:30;;;;;;;;;;;;;;;23.52;52.54;101298.97;4821369;29;19924;-61
2021/07/15 12:23:58;;;;;;;;;;;;;;;23.66;52.58;101319.59;4806422;29;19924;-61
2021/07/15 12:26:25;;;;;;;;;;;;;;;23.21;53.90;101301.03;4790597;29;19924;-61
2021/07/15 12:28:52;;;;;;;;;;;;;;;23.21;53.61;101309.47;4823837;29;19932;-62
2021/07/15 12:31:19;;;;;;;;;;;;;;;23.25;53.29;101315.13;4826549;29;19925;-61
2021/07/15 12:33:48;;;;;;;;;;;;;;;23.39;53.13;101304.88;4810487;29;19928;-61
2021/07/15 12:36:17;;;;;;;;;;;;;;;23.37;52.79;101314.88;4809534;29;19925;-61
2021/07/15 12:38:44;;;;;;;;;;;;;;;23.47;52.82;101311.38;4828184;29;20417;-62
2021/07/15 12:41:11;;;;;;;;;;;;;;;23.47;52.85;101317.00;4827710;29;20274;-61
2021/07/15 12:43:45;;;;;;;;;;;;;;;23.39;51.95;101316.13;4810485;29;19934;-62
2021/07/15 12:46:21;;;;;;;;;;;;;;;23.49;52.32;101325.03;4827137;29;19935;-61
2021/07/15 12:48:50;;;;;;;;;;;;;;;23.25;52.69;101332.00;4810820;29;19925;-61